createdAt,value
2023-11-01T00:00:56.421Z,0.00
2023-11-01T00:01:56.433Z,0.00
2023-11-01T00:02:56.695Z,0.00
2023-11-01T00:03:56.453Z,0.00
2023-11-01T00:04:56.446Z,0.00
2023-11-01T00:05:56.426Z,0.00
2023-11-01T00:06:56.437Z,0.00
2023-11-01T00:07:56.445Z,0.00
2023-11-01T00:08:56.445Z,0.00
2023-11-01T00:09:56.399Z,0.00
2023-11-01T00:10:56.378Z,0.00
2023-11-01T00:11:56.467Z,0.00
2023-11-01T00:12:56.291Z,0.00
2023-11-01T00:13:56.311Z,0.00
2023-11-01T00:14:56.384Z,0.00
2023-11-01T00:15:56.419Z,0.00
2023-11-01T00:16:56.334Z,0.00
2023-11-01T00:17:56.374Z,0.00
2023-11-01T00:18:56.302Z,0.00
2023-11-01T00:19:56.237Z,0.00
2023-11-01T00:20:56.372Z,0.00
2023-11-01T00:21:56.252Z,0.00
2023-11-01T00:22:56.897Z,0.00
2023-11-01T00:23:56.281Z,0.00
2023-11-01T00:24:56.165Z,0.00
2023-11-01T00:25:56.390Z,0.00
2023-11-01T00:26:56.288Z,0.00
2023-11-01T00:27:56.206Z,0.00
2023-11-01T00:28:56.221Z,0.00
2023-11-01T00:29:56.198Z,0.00
2023-11-01T00:30:56.101Z,0.00
2023-11-01T00:31:56.107Z,0.00
2023-11-01T00:32:56.197Z,0.00
2023-11-01T00:33:56.173Z,0.00
2023-11-01T00:34:56.129Z,0.00
2023-11-01T00:35:56.055Z,0.00
2023-11-01T00:36:56.055Z,0.00
2023-11-01T00:37:56.025Z,0.00
2023-11-01T00:38:56.488Z,0.00
2023-11-01T00:39:56.063Z,0.00
2023-11-01T00:40:56.080Z,0.00
2023-11-01T00:41:56.092Z,0.00
2023-11-01T00:42:55.996Z,0.00
2023-11-01T00:43:56.000Z,0.00
2023-11-01T00:44:56.019Z,0.00
2023-11-01T00:45:56.010Z,0.00
2023-11-01T00:46:55.969Z,0.00
2023-11-01T00:47:56.010Z,0.00
2023-11-01T00:48:55.927Z,0.00
2023-11-01T00:50:27.302Z,0.00
2023-11-01T00:50:55.943Z,0.00
2023-11-01T00:51:55.932Z,0.00
2023-11-01T00:52:55.943Z,0.00
2023-11-01T00:53:55.875Z,0.00
2023-11-01T00:54:55.867Z,0.00
2023-11-01T00:55:55.866Z,0.00
2023-11-01T00:56:55.874Z,0.00
2023-11-01T00:57:55.888Z,0.00
2023-11-01T00:58:55.903Z,0.00
2023-11-01T00:59:55.904Z,0.00
2023-11-01T01:00:55.819Z,0.00
2023-11-01T01:01:55.819Z,0.00
2023-11-01T01:02:55.995Z,0.00
2023-11-01T01:03:55.948Z,0.00
2023-11-01T01:04:55.808Z,0.00
2023-11-01T01:05:55.711Z,0.00
2023-11-01T01:06:55.769Z,0.00
2023-11-01T01:07:55.725Z,0.00
2023-11-01T01:08:55.763Z,0.00
2023-11-01T01:09:55.666Z,0.00
2023-11-01T01:10:55.860Z,0.00
2023-11-01T01:11:55.670Z,0.00
2023-11-01T01:12:55.702Z,0.00
2023-11-01T01:13:55.680Z,0.00
2023-11-01T01:14:55.668Z,0.00
2023-11-01T01:15:55.709Z,0.00
2023-11-01T01:16:55.690Z,0.00
2023-11-01T01:17:55.739Z,0.00
2023-11-01T01:18:55.739Z,0.00
2023-11-01T01:19:55.608Z,0.00
2023-11-01T01:20:55.625Z,0.00
2023-11-01T01:21:55.736Z,0.00
2023-11-01T01:22:55.743Z,0.00
2023-11-01T01:23:55.632Z,0.00
2023-11-01T01:24:55.570Z,0.00
2023-11-01T01:25:55.535Z,0.00
2023-11-01T01:26:55.560Z,0.00
2023-11-01T01:27:55.544Z,0.00
2023-11-01T01:28:55.561Z,0.00
2023-11-01T01:29:55.480Z,0.00
2023-11-01T01:30:55.583Z,0.00
2023-11-01T01:31:55.480Z,0.00
2023-11-01T01:32:55.546Z,0.00
2023-11-01T01:33:55.480Z,0.00
2023-11-01T01:34:55.507Z,0.00
2023-11-01T01:35:55.443Z,0.00
2023-11-01T01:36:55.514Z,0.00
2023-11-01T01:37:55.428Z,0.00
2023-11-01T01:38:55.426Z,0.00
2023-11-01T01:39:55.438Z,0.00
2023-11-01T01:40:55.344Z,0.00
2023-11-01T01:41:55.354Z,0.00
2023-11-01T01:42:55.416Z,0.00
2023-11-01T01:43:55.459Z,0.00
2023-11-01T01:44:55.380Z,0.00
2023-11-01T01:45:55.990Z,0.00
2023-11-01T01:46:55.287Z,0.00
2023-11-01T01:47:55.372Z,0.00
2023-11-01T01:48:55.305Z,0.00
2023-11-01T01:49:55.302Z,0.00
2023-11-01T01:50:55.316Z,0.00
2023-11-01T01:51:55.656Z,0.00
2023-11-01T01:52:55.304Z,0.00
2023-11-01T01:53:55.250Z,0.00
2023-11-01T01:54:55.341Z,0.00
2023-11-01T01:55:55.231Z,0.00
2023-11-01T01:56:55.233Z,0.00
2023-11-01T01:57:55.258Z,0.00
2023-11-01T01:58:55.185Z,0.00
2023-11-01T01:59:55.153Z,0.00
2023-11-01T02:00:55.161Z,0.00
2023-11-01T02:01:55.190Z,0.00
2023-11-01T02:02:55.283Z,0.00
2023-11-01T02:03:55.230Z,0.00
2023-11-01T02:04:55.098Z,0.00
2023-11-01T02:05:55.103Z,0.00
2023-11-01T02:06:55.110Z,0.00
2023-11-01T02:07:55.100Z,0.00
2023-11-01T02:08:55.085Z,0.00
2023-11-01T02:09:55.091Z,0.00
2023-11-01T02:10:55.101Z,0.00
2023-11-01T02:11:55.027Z,0.00
2023-11-01T02:12:55.039Z,0.00
2023-11-01T02:13:55.047Z,0.00
2023-11-01T02:14:55.050Z,0.00
2023-11-01T02:15:55.096Z,0.00
2023-11-01T02:16:54.987Z,0.00
2023-11-01T02:17:54.997Z,0.00
2023-11-01T02:18:54.991Z,0.00
2023-11-01T02:19:54.904Z,0.00
2023-11-01T02:20:55.021Z,0.00
2023-11-01T02:21:54.970Z,0.00
2023-11-01T02:22:55.005Z,0.00
2023-11-01T02:23:54.920Z,0.00
2023-11-01T02:24:54.992Z,0.00
2023-11-01T02:25:54.940Z,0.00
2023-11-01T02:26:54.945Z,0.00
2023-11-01T02:27:54.855Z,0.00
2023-11-01T02:28:54.847Z,0.00
2023-11-01T02:29:54.865Z,0.00
2023-11-01T02:30:54.929Z,0.00
2023-11-01T02:31:54.965Z,0.00
2023-11-01T02:32:54.902Z,0.00
2023-11-01T02:33:54.848Z,0.00
2023-11-01T02:34:54.787Z,0.00
2023-11-01T02:35:54.789Z,0.00
2023-11-01T02:36:54.761Z,0.00
2023-11-01T02:37:54.725Z,0.00
2023-11-01T02:38:54.779Z,0.00
2023-11-01T02:39:54.802Z,0.00
2023-11-01T02:40:54.732Z,0.00
2023-11-01T02:41:54.708Z,0.00
2023-11-01T02:42:54.702Z,0.00
2023-11-01T02:43:54.705Z,0.00
2023-11-01T02:44:54.704Z,0.00
2023-11-01T02:45:54.844Z,0.00
2023-11-01T02:46:54.637Z,0.00
2023-11-01T02:47:54.683Z,0.00
2023-11-01T02:48:54.631Z,0.00
2023-11-01T02:49:54.756Z,0.00
2023-11-01T02:50:54.682Z,0.00
2023-11-01T02:51:54.661Z,0.00
2023-11-01T02:52:54.669Z,0.00
2023-11-01T02:53:54.612Z,0.00
2023-11-01T02:54:54.584Z,0.00
2023-11-01T02:55:54.592Z,0.00
2023-11-01T02:56:54.694Z,0.00
2023-11-01T02:57:54.604Z,0.00
2023-11-01T02:58:54.521Z,1.00
2023-11-01T02:59:54.552Z,1.00
2023-11-01T03:00:54.433Z,1.00
2023-11-01T03:01:54.542Z,1.00
2023-11-01T03:02:54.465Z,1.00
2023-11-01T03:03:54.483Z,1.00
2023-11-01T03:04:54.449Z,1.00
2023-11-01T03:05:54.458Z,1.00
2023-11-01T03:06:54.397Z,1.00
2023-11-01T03:07:54.458Z,1.00
2023-11-01T03:08:54.353Z,1.00
2023-11-01T03:09:54.387Z,1.00
2023-11-01T03:10:54.366Z,1.00
2023-11-01T03:11:54.331Z,1.00
2023-11-01T03:12:54.342Z,1.00
2023-11-01T03:13:54.401Z,1.00
2023-11-01T03:14:54.292Z,1.00
2023-11-01T03:15:54.447Z,1.00
2023-11-01T03:16:54.325Z,1.00
2023-11-01T03:17:54.364Z,1.00
2023-11-01T03:18:54.312Z,1.00
2023-11-01T03:19:54.588Z,1.00
2023-11-01T03:20:54.485Z,1.00
2023-11-01T03:21:56.447Z,1.00
2023-11-01T03:22:54.267Z,1.00
2023-11-01T03:23:54.349Z,1.00
2023-11-01T03:24:54.469Z,1.00
2023-11-01T03:25:54.283Z,1.00
2023-11-01T03:26:54.270Z,1.00
2023-11-01T03:27:54.276Z,1.00
2023-11-01T03:28:54.177Z,1.00
2023-11-01T03:29:54.705Z,1.00
2023-11-01T03:30:54.560Z,1.00
2023-11-01T03:31:54.198Z,1.00
2023-11-01T03:32:54.172Z,1.00
2023-11-01T03:33:54.132Z,1.00
2023-11-01T03:34:54.147Z,1.00
2023-11-01T03:35:54.953Z,1.00
2023-11-01T03:36:54.169Z,1.00
2023-11-01T03:37:54.060Z,1.00
2023-11-01T03:38:54.060Z,1.00
2023-11-01T03:39:54.051Z,1.00
2023-11-01T03:40:54.062Z,1.00
2023-11-01T03:41:54.071Z,1.00
2023-11-01T03:42:54.072Z,1.00
2023-11-01T03:43:53.995Z,1.00
2023-11-01T03:44:54.033Z,1.00
2023-11-01T03:45:53.991Z,1.00
2023-11-01T03:46:53.999Z,1.00
2023-11-01T03:47:54.095Z,1.00
2023-11-01T03:48:54.442Z,1.00
2023-11-01T03:49:54.459Z,1.00
2023-11-01T03:50:53.941Z,1.00
2023-11-01T03:51:54.442Z,1.00
2023-11-01T03:52:54.454Z,1.00
2023-11-01T03:53:53.959Z,1.00
2023-11-01T03:54:54.969Z,1.00
2023-11-01T03:55:53.876Z,1.00
2023-11-01T03:56:53.884Z,1.00
2023-11-01T03:57:53.827Z,1.00
2023-11-01T03:58:53.869Z,1.00
2023-11-01T03:59:53.890Z,1.00
2023-11-01T04:00:53.831Z,1.00
2023-11-01T04:01:53.813Z,1.00
2023-11-01T04:02:53.904Z,1.00
2023-11-01T04:03:53.805Z,1.00
2023-11-01T04:04:53.869Z,1.00
2023-11-01T04:05:53.953Z,1.00
2023-11-01T04:06:53.833Z,1.00
2023-11-01T04:07:53.857Z,1.00
2023-11-01T04:08:53.765Z,1.00
2023-11-01T04:09:53.841Z,1.00
2023-11-01T04:10:53.755Z,1.00
2023-11-01T04:11:53.801Z,1.00
2023-11-01T04:12:53.804Z,1.00
2023-11-01T04:13:54.679Z,1.00
2023-11-01T04:14:53.701Z,1.00
2023-11-01T04:15:54.216Z,1.00
2023-11-01T04:16:53.792Z,1.00
2023-11-01T04:17:53.781Z,1.00
2023-11-01T04:18:53.608Z,1.00
2023-11-01T04:19:53.615Z,1.00
2023-11-01T04:20:54.398Z,1.00
2023-11-01T04:21:53.647Z,1.00
2023-11-01T04:22:53.648Z,1.00
2023-11-01T04:23:53.651Z,1.00
2023-11-01T04:24:53.666Z,1.00
2023-11-01T04:25:53.557Z,1.00
2023-11-01T04:26:53.777Z,1.00
2023-11-01T04:27:53.542Z,1.00
2023-11-01T04:28:53.671Z,1.00
2023-11-01T04:29:53.924Z,1.00
2023-11-01T04:30:53.577Z,1.00
2023-11-01T04:31:53.641Z,1.00
2023-11-01T04:32:53.558Z,1.00
2023-11-01T04:33:53.500Z,1.00
2023-11-01T04:34:53.495Z,1.00
2023-11-01T04:35:54.212Z,1.00
2023-11-01T04:36:57.435Z,1.00
2023-11-01T04:37:53.425Z,1.00
2023-11-01T04:38:53.490Z,1.00
2023-11-01T04:39:53.452Z,1.00
2023-11-01T04:40:53.570Z,1.00
2023-11-01T04:41:53.464Z,1.00
2023-11-01T04:42:53.369Z,1.00
2023-11-01T04:43:53.364Z,1.00
2023-11-01T04:44:53.379Z,1.00
2023-11-01T04:45:53.392Z,1.00
2023-11-01T04:46:53.479Z,1.00
2023-11-01T04:47:53.391Z,1.00
2023-11-01T04:48:53.331Z,1.00
2023-11-01T04:49:53.292Z,1.00
2023-11-01T04:50:53.328Z,1.00
2023-11-01T04:51:53.309Z,1.00
2023-11-01T04:52:54.087Z,1.00
2023-11-01T04:53:53.262Z,1.00
2023-11-01T04:54:53.244Z,1.00
2023-11-01T04:55:53.246Z,1.00
2023-11-01T04:56:53.271Z,1.00
2023-11-01T04:57:53.273Z,1.00
2023-11-01T04:58:54.170Z,1.00
2023-11-01T04:59:53.225Z,1.00
2023-11-01T05:00:53.186Z,1.00
2023-11-01T05:01:53.215Z,1.00
2023-11-01T05:02:53.317Z,1.00
2023-11-01T05:03:53.221Z,1.00
2023-11-01T05:04:53.515Z,1.00
2023-11-01T05:05:53.174Z,1.00
2023-11-01T05:06:53.117Z,1.00
2023-11-01T05:07:53.116Z,1.00
2023-11-01T05:08:53.158Z,1.00
2023-11-01T05:09:53.119Z,1.00
2023-11-01T05:10:53.535Z,1.00
2023-11-01T05:11:53.088Z,1.00
2023-11-01T05:12:53.043Z,1.00
2023-11-01T05:13:53.077Z,1.00
2023-11-01T05:14:53.053Z,1.00
2023-11-01T05:15:53.075Z,1.00
2023-11-01T05:16:53.074Z,1.00
2023-11-01T05:17:53.130Z,1.00
2023-11-01T05:18:53.009Z,1.00
2023-11-01T05:19:52.986Z,1.00
2023-11-01T05:20:53.258Z,1.00
2023-11-01T05:21:52.971Z,1.00
2023-11-01T05:22:52.983Z,1.00
2023-11-01T05:23:52.966Z,1.00
2023-11-01T05:24:53.037Z,1.00
2023-11-01T05:25:52.939Z,1.00
2023-11-01T05:26:52.982Z,1.00
2023-11-01T05:27:52.942Z,1.00
2023-11-01T05:28:52.875Z,1.00
2023-11-01T05:29:52.890Z,1.00
2023-11-01T05:30:52.989Z,1.00
2023-11-01T05:31:52.874Z,1.00
2023-11-01T05:32:52.842Z,1.00
2023-11-01T05:33:52.851Z,1.00
2023-11-01T05:34:52.812Z,1.00
2023-11-01T05:35:52.859Z,1.00
2023-11-01T05:36:52.811Z,1.00
2023-11-01T05:37:52.840Z,1.00
2023-11-01T05:38:52.853Z,1.00
2023-11-01T05:39:52.738Z,1.00
2023-11-01T05:40:52.749Z,1.00
2023-11-01T05:41:52.795Z,1.00
2023-11-01T05:42:52.733Z,1.00
2023-11-01T05:43:52.744Z,1.00
2023-11-01T05:44:52.758Z,1.00
2023-11-01T05:45:52.833Z,1.00
2023-11-01T05:46:52.731Z,1.00
2023-11-01T05:47:53.888Z,1.00
2023-11-01T05:48:52.680Z,1.00
2023-11-01T05:49:52.680Z,1.00
2023-11-01T05:50:52.694Z,1.00
2023-11-01T05:51:52.659Z,1.00
2023-11-01T05:52:52.672Z,1.00
2023-11-01T05:53:52.721Z,1.00
2023-11-01T05:54:55.153Z,1.00
2023-11-01T05:56:01.312Z,1.00
2023-11-01T05:56:52.587Z,1.00
2023-11-01T05:57:52.610Z,1.00
2023-11-01T05:58:52.604Z,1.00
2023-11-01T05:59:52.521Z,1.00
2023-11-01T06:00:55.997Z,1.00
2023-11-01T06:01:52.554Z,1.00
2023-11-01T06:02:52.654Z,1.00
2023-11-01T06:03:52.637Z,1.00
2023-11-01T06:04:52.544Z,1.00
2023-11-01T06:05:52.585Z,1.00
2023-11-01T06:06:52.470Z,1.00
2023-11-01T06:07:52.577Z,1.00
2023-11-01T06:08:52.497Z,1.00
2023-11-01T06:09:52.477Z,1.00
2023-11-01T06:10:52.485Z,1.00
2023-11-01T06:11:52.543Z,1.00
2023-11-01T06:12:52.489Z,1.00
2023-11-01T06:13:52.401Z,1.00
2023-11-01T06:14:53.021Z,1.00
2023-11-01T06:15:52.421Z,1.00
2023-11-01T06:16:52.386Z,1.00
2023-11-01T06:17:52.460Z,1.00
2023-11-01T06:18:52.448Z,1.00
2023-11-01T06:19:52.337Z,1.00
2023-11-01T06:20:52.388Z,1.00
2023-11-01T06:21:52.344Z,1.00
2023-11-01T06:22:52.374Z,1.00
2023-11-01T06:23:52.385Z,1.00
2023-11-01T06:24:52.430Z,1.00
2023-11-01T06:25:52.262Z,1.00
2023-11-01T06:26:52.300Z,1.00
2023-11-01T06:27:52.297Z,1.00
2023-11-01T06:28:52.292Z,1.00
2023-11-01T06:29:52.321Z,1.00
2023-11-01T06:30:52.306Z,1.00
2023-11-01T06:31:52.222Z,1.00
2023-11-01T06:32:52.316Z,1.00
2023-11-01T06:33:52.337Z,1.00
2023-11-01T06:34:52.234Z,1.00
2023-11-01T06:35:52.213Z,1.00
2023-11-01T06:36:52.241Z,1.00
2023-11-01T06:37:52.165Z,1.00
2023-11-01T06:38:52.216Z,1.00
2023-11-01T06:39:52.182Z,1.00
2023-11-01T06:40:52.192Z,1.00
2023-11-01T06:41:52.161Z,1.00
2023-11-01T06:42:52.126Z,1.00
2023-11-01T06:43:52.081Z,1.00
2023-11-01T06:44:52.160Z,1.00
2023-11-01T06:45:52.108Z,1.00
2023-11-01T06:46:52.138Z,1.00
2023-11-01T06:47:52.116Z,1.00
2023-11-01T06:48:52.051Z,1.00
2023-11-01T06:49:52.038Z,1.00
2023-11-01T06:50:52.060Z,1.00
2023-11-01T06:51:52.060Z,1.00
2023-11-01T06:52:52.114Z,1.00
2023-11-01T06:53:51.990Z,1.00
2023-11-01T06:54:51.958Z,1.00
2023-11-01T06:55:52.005Z,1.00
2023-11-01T06:56:52.646Z,1.00
2023-11-01T06:57:52.044Z,1.00
2023-11-01T06:58:52.008Z,1.00
2023-11-01T06:59:51.911Z,1.00
2023-11-01T07:00:51.939Z,1.00
2023-11-01T07:01:51.928Z,1.00
2023-11-01T07:02:52.307Z,1.00
2023-11-01T07:03:51.993Z,1.00
2023-11-01T07:04:51.851Z,1.00
2023-11-01T07:05:51.902Z,1.00
2023-11-01T07:06:51.834Z,1.00
2023-11-01T07:07:51.845Z,1.00
2023-11-01T07:08:53.687Z,1.00
2023-11-01T07:09:51.867Z,1.00
2023-11-01T07:10:51.790Z,1.00
2023-11-01T07:11:51.811Z,1.00
2023-11-01T07:12:51.790Z,1.00
2023-11-01T07:13:51.730Z,1.00
2023-11-01T07:14:51.833Z,1.00
2023-11-01T07:15:52.024Z,1.00
2023-11-01T07:16:51.707Z,1.00
2023-11-01T07:17:51.795Z,1.00
2023-11-01T07:18:51.701Z,1.00
2023-11-01T07:19:51.703Z,1.00
2023-11-01T07:20:51.763Z,1.00
2023-11-01T07:21:51.730Z,1.00
2023-11-01T07:22:51.675Z,1.00
2023-11-01T07:23:51.721Z,1.00
2023-11-01T07:24:51.677Z,1.00
2023-11-01T07:25:51.747Z,1.00
2023-11-01T07:26:51.759Z,1.00
2023-11-01T07:27:51.659Z,1.00
2023-11-01T07:28:51.586Z,1.00
2023-11-01T07:29:51.624Z,1.00
2023-11-01T07:30:51.606Z,1.00
2023-11-01T07:31:51.588Z,1.00
2023-11-01T07:32:51.688Z,1.00
2023-11-01T07:33:51.615Z,1.00
2023-11-01T07:34:51.553Z,1.00
2023-11-01T07:35:52.196Z,1.00
2023-11-01T07:36:51.510Z,1.00
2023-11-01T07:37:51.533Z,1.00
2023-11-01T07:38:51.562Z,1.00
2023-11-01T07:39:51.535Z,1.00
2023-11-01T07:40:51.465Z,1.00
2023-11-01T07:41:51.505Z,1.00
2023-11-01T07:42:51.511Z,1.00
2023-11-01T07:43:51.454Z,1.00
2023-11-01T07:44:51.527Z,1.00
2023-11-01T07:45:51.517Z,1.00
2023-11-01T07:46:51.407Z,1.00
2023-11-01T07:47:51.517Z,1.00
2023-11-01T07:48:51.392Z,1.00
2023-11-01T07:49:51.424Z,1.00
2023-11-01T07:50:51.479Z,1.00
2023-11-01T07:51:51.427Z,1.00
2023-11-01T07:52:51.342Z,1.00
2023-11-01T07:53:51.356Z,1.00
2023-11-01T07:54:51.536Z,1.00
2023-11-01T07:55:53.926Z,1.00
2023-11-01T07:56:51.466Z,1.00
2023-11-01T07:57:51.554Z,1.00
2023-11-01T07:58:51.276Z,1.00
2023-11-01T07:59:51.323Z,1.00
2023-11-01T08:00:51.291Z,1.00
2023-11-01T08:01:51.810Z,1.00
2023-11-01T08:02:51.392Z,1.00
2023-11-01T08:03:51.434Z,1.00
2023-11-01T08:04:51.235Z,1.00
2023-11-01T08:05:51.239Z,1.00
2023-11-01T08:06:51.210Z,1.00
2023-11-01T08:07:51.358Z,1.00
2023-11-01T08:08:51.290Z,1.00
2023-11-01T08:09:51.359Z,0.00
2023-11-01T08:10:51.249Z,0.00
2023-11-01T08:11:51.285Z,0.00
2023-11-01T08:12:51.790Z,0.00
2023-11-01T08:13:51.499Z,0.00
2023-11-01T08:14:51.562Z,0.00
2023-11-01T08:15:51.179Z,0.00
2023-11-01T08:16:51.260Z,0.00
2023-11-01T08:17:51.231Z,0.00
2023-11-01T08:18:51.187Z,0.00
2023-11-01T08:19:51.108Z,0.00
2023-11-01T08:20:51.844Z,0.00
2023-11-01T08:21:51.024Z,1.00
2023-11-01T08:22:51.129Z,0.00
2023-11-01T08:23:51.054Z,1.00
2023-11-01T08:24:51.117Z,1.00
2023-11-01T08:25:51.846Z,0.00
2023-11-01T08:26:51.116Z,0.00
2023-11-01T08:27:51.069Z,0.00
2023-11-01T08:28:51.064Z,0.00
2023-11-01T08:29:51.128Z,0.00
2023-11-01T08:30:51.067Z,1.00
2023-11-01T08:31:51.092Z,1.00
2023-11-01T08:32:51.119Z,1.00
2023-11-01T08:33:51.102Z,1.00
2023-11-01T08:34:50.986Z,1.00
2023-11-01T08:35:51.063Z,0.00
2023-11-01T08:36:51.026Z,0.00
2023-11-01T08:37:50.944Z,0.00
2023-11-01T08:38:50.952Z,0.00
2023-11-01T08:39:50.920Z,0.00
2023-11-01T08:40:51.036Z,0.00
2023-11-01T08:41:50.952Z,0.00
2023-11-01T08:42:50.857Z,1.00
2023-11-01T08:43:50.868Z,0.00
2023-11-01T08:44:50.969Z,0.00
2023-11-01T08:45:50.902Z,4.00
2023-11-01T08:46:50.796Z,2.00
2023-11-01T08:47:50.854Z,1.00
2023-11-01T08:48:50.779Z,3.00
2023-11-01T08:49:50.809Z,5.00
2023-11-01T08:50:50.826Z,5.00
2023-11-01T08:51:50.695Z,2.00
2023-11-01T08:52:50.705Z,1.00
2023-11-01T08:53:50.750Z,1.00
2023-11-01T08:54:50.740Z,1.00
2023-11-01T08:55:50.729Z,1.00
2023-11-01T08:56:50.732Z,1.00
2023-11-01T08:57:50.740Z,2.00
2023-11-01T08:58:50.645Z,5.00
2023-11-01T08:59:50.714Z,6.00
2023-11-01T09:00:50.660Z,6.00
2023-11-01T09:01:50.770Z,2.00
2023-11-01T09:02:50.767Z,1.00
2023-11-01T09:03:50.742Z,4.00
2023-11-01T09:04:50.656Z,8.00
2023-11-01T09:05:50.696Z,4.00
2023-11-01T09:06:50.574Z,5.00
2023-11-01T09:07:51.604Z,2.00
2023-11-01T09:08:50.630Z,7.00
2023-11-01T09:09:50.519Z,9.00
2023-11-01T09:10:52.864Z,5.00
2023-11-01T09:11:50.586Z,3.00
2023-11-01T09:12:50.634Z,4.00
2023-11-01T09:13:50.510Z,2.00
2023-11-01T09:14:50.595Z,1.00
2023-11-01T09:15:50.457Z,1.00
2023-11-01T09:16:50.684Z,2.00
2023-11-01T09:17:50.601Z,1.00
2023-11-01T09:18:50.557Z,1.00
2023-11-01T09:19:50.547Z,1.00
2023-11-01T09:20:50.523Z,1.00
2023-11-01T09:21:50.389Z,1.00
2023-11-01T09:22:50.402Z,1.00
2023-11-01T09:23:50.402Z,1.00
2023-11-01T09:24:50.376Z,1.00
2023-11-01T09:25:50.380Z,2.00
2023-11-01T09:26:50.419Z,7.00
2023-11-01T09:27:50.320Z,6.00
2023-11-01T09:28:50.344Z,4.00
2023-11-01T09:29:50.452Z,4.00
2023-11-01T09:30:50.437Z,3.00
2023-11-01T09:31:50.385Z,4.00
2023-11-01T09:32:50.441Z,5.00
2023-11-01T09:33:50.825Z,9.00
2023-11-01T09:34:53.520Z,11.00
2023-11-01T09:35:50.374Z,14.00
2023-11-01T09:36:50.251Z,13.00
2023-11-01T09:37:50.257Z,6.00
2023-11-01T09:38:50.208Z,7.00
2023-11-01T09:39:50.229Z,16.00
2023-11-01T09:40:50.615Z,12.00
2023-11-01T09:41:50.256Z,13.00
2023-11-01T09:42:50.242Z,11.00
2023-11-01T09:43:50.192Z,9.00
2023-11-01T09:44:50.406Z,7.00
2023-11-01T09:45:50.320Z,8.00
2023-11-01T09:46:50.192Z,17.00
2023-11-01T09:47:50.400Z,11.00
2023-11-01T09:48:50.243Z,14.00
2023-11-01T09:49:50.135Z,13.00
2023-11-01T09:50:50.100Z,26.00
2023-11-01T09:51:50.145Z,20.00
2023-11-01T09:52:50.113Z,16.00
2023-11-01T09:53:50.077Z,17.00
2023-11-01T09:54:50.097Z,19.00
2023-11-01T09:55:50.066Z,32.00
2023-11-01T09:56:50.130Z,37.00
2023-11-01T09:57:50.104Z,30.00
2023-11-01T09:58:49.996Z,17.00
2023-11-01T09:59:50.033Z,16.00
2023-11-01T10:00:50.846Z,23.00
2023-11-01T10:01:50.006Z,24.00
2023-11-01T10:02:50.088Z,20.00
2023-11-01T10:03:50.024Z,16.00
2023-11-01T10:04:50.046Z,20.00
2023-11-01T10:05:49.986Z,23.00
2023-11-01T10:06:49.944Z,35.00
2023-11-01T10:07:49.979Z,30.00
2023-11-01T10:08:50.024Z,20.00
2023-11-01T10:09:49.954Z,27.00
2023-11-01T10:10:49.892Z,31.00
2023-11-01T10:11:49.919Z,25.00
2023-11-01T10:12:49.891Z,32.00
2023-11-01T10:13:49.917Z,15.00
2023-11-01T10:14:49.920Z,18.00
2023-11-01T10:15:49.903Z,25.00
2023-11-01T10:16:49.903Z,22.00
2023-11-01T10:17:49.902Z,24.00
2023-11-01T10:18:49.811Z,29.00
2023-11-01T10:19:49.828Z,35.00
2023-11-01T10:20:49.889Z,46.00
2023-11-01T10:21:49.744Z,65.00
2023-11-01T10:22:50.068Z,56.00
2023-11-01T10:23:49.815Z,55.00
2023-11-01T10:24:49.753Z,49.00
2023-11-01T10:25:49.796Z,54.00
2023-11-01T10:26:50.020Z,44.00
2023-11-01T10:27:49.701Z,41.00
2023-11-01T10:28:49.717Z,36.00
2023-11-01T10:29:49.713Z,33.00
2023-11-01T10:30:49.639Z,31.00
2023-11-01T10:31:50.751Z,31.00
2023-11-01T10:32:49.800Z,26.00
2023-11-01T10:33:49.761Z,27.00
2023-11-01T10:34:49.618Z,27.00
2023-11-01T10:35:49.686Z,27.00
2023-11-01T10:36:49.678Z,21.00
2023-11-01T10:37:49.653Z,26.00
2023-11-01T10:38:49.722Z,27.00
2023-11-01T10:39:49.573Z,22.00
2023-11-01T10:40:49.548Z,19.00
2023-11-01T10:41:49.591Z,22.00
2023-11-01T10:42:49.565Z,26.00
2023-11-01T10:43:49.704Z,24.00
2023-11-01T10:44:49.606Z,26.00
2023-11-01T10:45:49.584Z,41.00
2023-11-01T10:46:49.494Z,38.00
2023-11-01T10:47:49.610Z,39.00
2023-11-01T10:48:49.594Z,36.00
2023-11-01T10:49:49.525Z,34.00
2023-11-01T10:50:49.535Z,39.00
2023-11-01T10:51:49.460Z,37.00
2023-11-01T10:52:49.457Z,34.00
2023-11-01T10:53:50.113Z,39.00
2023-11-01T10:54:49.538Z,46.00
2023-11-01T10:55:49.591Z,55.00
2023-11-01T10:56:49.527Z,120.00
2023-11-01T10:57:49.474Z,72.00
2023-11-01T10:58:49.383Z,64.00
2023-11-01T10:59:49.480Z,55.00
2023-11-01T11:00:49.685Z,59.00
2023-11-01T11:01:49.408Z,61.00
2023-11-01T11:02:49.535Z,83.00
2023-11-01T11:03:49.557Z,65.00
2023-11-01T11:04:49.415Z,69.00
2023-11-01T11:05:49.357Z,74.00
2023-11-01T11:06:49.663Z,82.00
2023-11-01T11:07:49.423Z,106.00
2023-11-01T11:08:49.414Z,125.00
2023-11-01T11:09:49.271Z,87.00
2023-11-01T11:10:49.369Z,83.00
2023-11-01T11:11:49.312Z,81.00
2023-11-01T11:12:49.323Z,91.00
2023-11-01T11:13:49.292Z,115.00
2023-11-01T11:14:49.216Z,109.00
2023-11-01T11:15:49.513Z,122.00
2023-11-01T11:16:49.301Z,114.00
2023-11-01T11:17:49.257Z,99.00
2023-11-01T11:18:49.327Z,93.00
2023-11-01T11:19:49.191Z,101.00
2023-11-01T11:20:49.254Z,97.00
2023-11-01T11:21:49.569Z,90.00
2023-11-01T11:22:49.115Z,115.00
2023-11-01T11:23:49.253Z,98.00
2023-11-01T11:24:49.201Z,81.00
2023-11-01T11:25:49.123Z,64.00
2023-11-01T11:26:49.676Z,49.00
2023-11-01T11:27:49.051Z,59.00
2023-11-01T11:28:49.197Z,94.00
2023-11-01T11:29:49.181Z,79.00
2023-11-01T11:30:50.115Z,67.00
2023-11-01T11:31:49.019Z,68.00
2023-11-01T11:32:49.108Z,77.00
2023-11-01T11:33:49.043Z,72.00
2023-11-01T11:34:48.997Z,68.00
2023-11-01T11:35:49.047Z,72.00
2023-11-01T11:36:49.036Z,75.00
2023-11-01T11:37:48.938Z,65.00
2023-11-01T11:38:49.337Z,58.00
2023-11-01T11:39:48.954Z,52.00
2023-11-01T11:40:50.056Z,54.00
2023-11-01T11:41:49.032Z,45.00
2023-11-01T11:42:48.966Z,45.00
2023-11-01T11:43:48.957Z,45.00
2023-11-01T11:44:48.955Z,45.00
2023-11-01T11:45:48.979Z,57.00
2023-11-01T11:46:48.908Z,67.00
2023-11-01T11:47:48.979Z,62.00
2023-11-01T11:48:49.058Z,51.00
2023-11-01T11:49:48.991Z,44.00
2023-11-01T11:50:48.917Z,53.00
2023-11-01T11:51:49.157Z,52.00
2023-11-01T11:52:48.845Z,59.00
2023-11-01T11:53:48.848Z,72.00
2023-11-01T11:54:48.830Z,63.00
2023-11-01T11:55:49.468Z,36.00
2023-11-01T11:56:48.759Z,31.00
2023-11-01T11:57:48.746Z,39.00
2023-11-01T11:58:48.761Z,49.00
2023-11-01T11:59:48.904Z,49.00
2023-11-01T12:00:48.949Z,47.00
2023-11-01T12:01:48.805Z,46.00
2023-11-01T12:02:48.750Z,48.00
2023-11-01T12:03:48.814Z,45.00
2023-11-01T12:04:48.713Z,42.00
2023-11-01T12:05:48.723Z,40.00
2023-11-01T12:06:48.691Z,25.00
2023-11-01T12:07:48.733Z,27.00
2023-11-01T12:08:48.760Z,43.00
2023-11-01T12:09:48.617Z,33.00
2023-11-01T12:10:48.728Z,40.00
2023-11-01T12:11:49.398Z,75.00
2023-11-01T12:12:48.614Z,43.00
2023-11-01T12:13:48.620Z,64.00
2023-11-01T12:14:48.606Z,91.00
2023-11-01T12:15:48.530Z,60.00
2023-11-01T12:16:48.589Z,50.00
2023-11-01T12:17:48.665Z,55.00
2023-11-01T12:18:48.648Z,33.00
2023-11-01T12:19:48.597Z,44.00
2023-11-01T12:20:48.538Z,39.00
2023-11-01T12:21:48.516Z,38.00
2023-11-01T12:22:48.505Z,53.00
2023-11-01T12:23:48.544Z,57.00
2023-11-01T12:24:48.525Z,67.00
2023-11-01T12:25:48.613Z,54.00
2023-11-01T12:26:48.537Z,43.00
2023-11-01T12:27:48.486Z,40.00
2023-11-01T12:28:48.411Z,33.00
2023-11-01T12:29:48.654Z,32.00
2023-11-01T12:30:48.536Z,36.00
2023-11-01T12:31:48.544Z,40.00
2023-11-01T12:32:48.453Z,45.00
2023-11-01T12:33:48.508Z,69.00
2023-11-01T12:34:48.632Z,50.00
2023-11-01T12:35:48.412Z,62.00
2023-11-01T12:36:48.373Z,104.00
2023-11-01T12:37:48.826Z,64.00
2023-11-01T12:38:48.352Z,139.00
2023-11-01T12:39:48.402Z,134.00
2023-11-01T12:40:48.286Z,86.00
2023-11-01T12:41:48.371Z,60.00
2023-11-01T12:42:48.438Z,53.00
2023-11-01T12:43:48.819Z,59.00
2023-11-01T12:44:48.751Z,47.00
2023-11-01T12:45:48.220Z,41.00
2023-11-01T12:46:48.247Z,31.00
2023-11-01T12:47:48.597Z,53.00
2023-11-01T12:48:48.468Z,55.00
2023-11-01T12:49:48.238Z,31.00
2023-11-01T12:50:48.249Z,35.00
2023-11-01T12:51:48.154Z,39.00
2023-11-01T12:52:48.355Z,66.00
2023-11-01T12:53:48.917Z,83.00
2023-11-01T12:54:48.171Z,81.00
2023-11-01T12:55:48.248Z,41.00
2023-11-01T12:56:48.212Z,51.00
2023-11-01T12:57:48.336Z,31.00
2023-11-01T12:58:48.153Z,39.00
2023-11-01T12:59:48.192Z,63.00
2023-11-01T13:00:48.206Z,72.00
2023-11-01T13:01:48.242Z,40.00
2023-11-01T13:02:48.186Z,80.00
2023-11-01T13:03:48.238Z,120.00
2023-11-01T13:04:48.052Z,49.00
2023-11-01T13:05:48.220Z,39.00
2023-11-01T13:06:48.048Z,58.00
2023-11-01T13:07:48.061Z,61.00
2023-11-01T13:08:48.067Z,52.00
2023-11-01T13:09:47.978Z,43.00
2023-11-01T13:10:48.287Z,44.00